sensor_id;sensor_type;location;lat;lon;timestamp;temperature;humidity
39695;DHT22;25367;-35.352;149.036;2024-03-22T07:34:19;22.00;53.20
39695;DHT22;25367;-35.352;149.036;2024-03-22T07:36:48;22.00;53.30
39695;DHT22;25367;-35.352;149.036;2024-03-22T07:39:17;22.20;53.00
39695;DHT22;25367;-35.352;149.036;2024-03-22T07:41:47;22.40;52.80
39695;DHT22;25367;-35.352;149.036;2024-03-22T07:44:17;22.60;52.40
39695;DHT22;25367;-35.352;149.036;2024-03-22T07:46:46;22.70;51.90
39695;DHT22;25367;-35.352;149.036;2024-03-22T07:49:18;22.80;51.60
39695;DHT22;25367;-35.352;149.036;2024-03-22T07:51:47;23.00;51.60
39695;DHT22;25367;-35.352;149.036;2024-03-22T07:54:16;23.00;51.20
39695;DHT22;25367;-35.352;149.036;2024-03-22T07:56:46;23.10;51.40
39695;DHT22;25367;-35.352;149.036;2024-03-22T07:59:16;23.10;51.30
39695;DHT22;25367;-35.352;149.036;2024-03-22T08:01:46;23.20;51.20
39695;DHT22;25367;-35.352;149.036;2024-03-22T08:04:15;23.20;51.10
39695;DHT22;25367;-35.352;149.036;2024-03-22T08:06:47;23.30;51.10
39695;DHT22;25367;-35.352;149.036;2024-03-22T08:09:16;23.40;51.00
39695;DHT22;25367;-35.352;149.036;2024-03-22T08:11:46;23.40;51.00
39695;DHT22;25367;-35.352;149.036;2024-03-22T08:14:15;23.40;51.00
39695;DHT22;25367;-35.352;149.036;2024-03-22T08:16:44;23.50;50.80
39695;DHT22;25367;-35.352;149.036;2024-03-22T08:19:14;23.50;51.00
39695;DHT22;25367;-35.352;149.036;2024-03-22T08:21:45;23.50;50.90
39695;DHT22;25367;-35.352;149.036;2024-03-22T08:24:15;23.60;51.00
39695;DHT22;25367;-35.352;149.036;2024-03-22T08:26:44;23.60;50.90
39695;DHT22;25367;-35.352;149.036;2024-03-22T08:29:14;23.60;50.70
39695;DHT22;25367;-35.352;149.036;2024-03-22T08:31:44;23.70;50.80
39695;DHT22;25367;-35.352;149.036;2024-03-22T08:34:13;23.70;50.70
39695;DHT22;25367;-35.352;149.036;2024-03-22T08:36:42;23.70;50.60
39695;DHT22;25367;-35.352;149.036;2024-03-22T08:39:14;23.70;51.10
39695;DHT22;25367;-35.352;149.036;2024-03-22T08:41:43;23.70;50.20
39695;DHT22;25367;-35.352;149.036;2024-03-22T08:44:13;23.70;50.20
39695;DHT22;25367;-35.352;149.036;2024-03-22T08:46:42;23.80;50.30
39695;DHT22;25367;-35.352;149.036;2024-03-22T08:49:12;23.70;50.10
39695;DHT22;25367;-35.352;149.036;2024-03-22T08:51:42;23.80;50.00
39695;DHT22;25367;-35.352;149.036;2024-03-22T08:54:13;23.80;50.20
39695;DHT22;25367;-35.352;149.036;2024-03-22T08:56:42;23.80;50.20
39695;DHT22;25367;-35.352;149.036;2024-03-22T08:59:12;23.80;50.10
39695;DHT22;25367;-35.352;149.036;2024-03-22T09:01:42;23.80;50.10
39695;DHT22;25367;-35.352;149.036;2024-03-22T09:04:11;23.80;49.90
39695;DHT22;25367;-35.352;149.036;2024-03-22T09:06:40;23.80;49.90
39695;DHT22;25367;-35.352;149.036;2024-03-22T09:09:13;23.90;49.90
39695;DHT22;25367;-35.352;149.036;2024-03-22T09:11:42;23.90;49.90
39695;DHT22;25367;-35.352;149.036;2024-03-22T09:14:12;23.90;49.80
39695;DHT22;25367;-35.352;149.036;2024-03-22T09:16:42;23.90;49.60
39695;DHT22;25367;-35.352;149.036;2024-03-22T09:19:12;23.90;49.60
39695;DHT22;25367;-35.352;149.036;2024-03-22T09:21:41;23.90;49.50
39695;DHT22;25367;-35.352;149.036;2024-03-22T09:24:14;23.90;49.60
39695;DHT22;25367;-35.352;149.036;2024-03-22T09:26:43;23.90;49.50
39695;DHT22;25367;-35.352;149.036;2024-03-22T09:29:15;23.90;49.50
39695;DHT22;25367;-35.352;149.036;2024-03-22T09:31:44;23.90;49.40
39695;DHT22;25367;-35.352;149.036;2024-03-22T09:34:14;23.90;49.30
39695;DHT22;25367;-35.352;149.036;2024-03-22T09:36:43;23.90;49.20
39695;DHT22;25367;-35.352;149.036;2024-03-22T10:12:27;22.80;50.00
39695;DHT22;25367;-35.352;149.036;2024-03-22T10:14:56;22.90;50.60
39695;DHT22;25367;-35.352;149.036;2024-03-22T10:17:28;23.00;50.40
39695;DHT22;25367;-35.352;149.036;2024-03-22T10:19:58;23.20;50.20
39695;DHT22;25367;-35.352;149.036;2024-03-22T10:22:27;23.30;50.00
39695;DHT22;25367;-35.352;149.036;2024-03-22T10:24:57;23.30;49.70
39695;DHT22;25367;-35.352;149.036;2024-03-22T10:27:29;23.40;49.60
39695;DHT22;25367;-35.352;149.036;2024-03-22T10:29:59;23.50;49.60
39695;DHT22;25367;-35.352;149.036;2024-03-22T10:32:30;23.50;49.50
39695;DHT22;25367;-35.352;149.036;2024-03-22T10:35:00;23.60;49.50
39695;DHT22;25367;-35.352;149.036;2024-03-22T10:37:30;23.60;49.40
39695;DHT22;25367;-35.352;149.036;2024-03-22T10:40:02;23.60;49.30
39695;DHT22;25367;-35.352;149.036;2024-03-22T10:42:34;23.70;49.30
39695;DHT22;25367;-35.352;149.036;2024-03-22T10:45:05;23.70;49.00
39695;DHT22;25367;-35.352;149.036;2024-03-22T10:47:36;23.70;49.10
39695;DHT22;25367;-35.352;149.036;2024-03-22T10:50:07;23.70;48.80
39695;DHT22;25367;-35.352;149.036;2024-03-22T10:52:40;23.70;48.90
39695;DHT22;25367;-35.352;149.036;2024-03-22T10:55:17;23.70;48.80
39695;DHT22;25367;-35.352;149.036;2024-03-22T10:57:52;23.80;48.90
39695;DHT22;25367;-35.352;149.036;2024-03-22T11:00:29;23.70;48.80
39695;DHT22;25367;-35.352;149.036;2024-03-22T11:02:59;23.70;48.70
39695;DHT22;25367;-35.352;149.036;2024-03-22T11:05:31;23.70;48.80
39695;DHT22;25367;-35.352;149.036;2024-03-22T11:08:01;23.80;48.80
39695;DHT22;25367;-35.352;149.036;2024-03-22T11:10:33;23.70;48.70
39695;DHT22;25367;-35.352;149.036;2024-03-22T11:13:06;23.80;48.80
39695;DHT22;25367;-35.352;149.036;2024-03-22T11:15:36;23.80;48.90
39695;DHT22;25367;-35.352;149.036;2024-03-22T11:18:06;23.80;48.80
39695;DHT22;25367;-35.352;149.036;2024-03-22T11:20:38;23.80;48.80
39695;DHT22;25367;-35.352;149.036;2024-03-22T11:23:08;23.80;48.80
39695;DHT22;25367;-35.352;149.036;2024-03-22T11:25:38;23.80;48.80
39695;DHT22;25367;-35.352;149.036;2024-03-22T11:28:09;23.80;48.70
39695;DHT22;25367;-35.352;149.036;2024-03-22T11:30:39;23.80;48.80
39695;DHT22;25367;-35.352;149.036;2024-03-22T11:33:10;23.80;48.70
39695;DHT22;25367;-35.352;149.036;2024-03-22T11:35:39;23.80;48.80
39695;DHT22;25367;-35.352;149.036;2024-03-22T11:38:09;23.80;48.70
39695;DHT22;25367;-35.352;149.036;2024-03-22T11:40:39;23.80;48.70
39695;DHT22;25367;-35.352;149.036;2024-03-22T11:43:11;23.80;48.70
39695;DHT22;25367;-35.352;149.036;2024-03-22T11:45:43;23.80;48.70
39695;DHT22;25367;-35.352;149.036;2024-03-22T11:48:13;23.80;48.50
39695;DHT22;25367;-35.352;149.036;2024-03-22T11:50:43;23.80;48.40
39695;DHT22;25367;-35.352;149.036;2024-03-22T11:53:12;23.80;48.40
39695;DHT22;25367;-35.352;149.036;2024-03-22T19:44:21;19.80;53.10
39695;DHT22;25367;-35.352;149.036;2024-03-22T19:46:51;19.80;54.50
39695;DHT22;25367;-35.352;149.036;2024-03-22T19:49:20;19.90;54.60
39695;DHT22;25367;-35.352;149.036;2024-03-22T19:51:50;20.10;54.60
39695;DHT22;25367;-35.352;149.036;2024-03-22T19:54:19;20.30;54.40
39695;DHT22;25367;-35.352;149.036;2024-03-22T19:56:49;20.30;54.30
39695;DHT22;25367;-35.352;149.036;2024-03-22T19:59:20;20.40;54.10
39695;DHT22;25367;-35.352;149.036;2024-03-22T20:01:49;20.60;54.00
39695;DHT22;25367;-35.352;149.036;2024-03-22T20:04:19;20.60;53.90
39695;DHT22;25367;-35.352;149.036;2024-03-22T20:06:48;20.60;53.90
39695;DHT22;25367;-35.352;149.036;2024-03-22T20:09:18;20.70;53.90
39695;DHT22;25367;-35.352;149.036;2024-03-22T20:11:47;20.80;53.90
39695;DHT22;25367;-35.352;149.036;2024-03-22T20:14:19;20.80;53.80
39695;DHT22;25367;-35.352;149.036;2024-03-22T20:16:49;20.90;53.80
39695;DHT22;25367;-35.352;149.036;2024-03-22T20:19:18;20.90;53.80
39695;DHT22;25367;-35.352;149.036;2024-03-22T20:21:48;20.90;53.70
39695;DHT22;25367;-35.352;149.036;2024-03-22T20:24:17;21.00;53.70
39695;DHT22;25367;-35.352;149.036;2024-03-22T20:26:47;21.00;53.60
39695;DHT22;25367;-35.352;149.036;2024-03-22T20:29:18;21.00;53.60
39695;DHT22;25367;-35.352;149.036;2024-03-22T20:31:48;21.00;53.50
39695;DHT22;25367;-35.352;149.036;2024-03-22T20:34:17;21.00;53.40
39695;DHT22;25367;-35.352;149.036;2024-03-22T20:36:46;21.10;53.50
